Sendai, Japan
Current Conditions -  °F | °C
As of 2:13 PM on Wednesday 26 Nov 2014 (Local Time) from RJSS Reporting Station
Light Rain Light Rain  
Wind Chill: 36°   Ceiling: 1500
Heat Index: 43°   Visibility: 4mi
Dew Point: 43°   Wind: 13mph
Humidity: 100%   Direction: 360°N
Pressure: 30.06"   Gusts: NA
Location:  38.26°N, 140.89°E
Report Text: RJSS 260513Z 36011KT 7000 -RA FEW005 SCT010 BKN015 06/06 Q1018 RMK 1ST005 4ST010 7ST015 A3007
Loading
Personal Weather Stations






























Interactive Weather Map New forecast layout! Learn more

10-Day Weather Forecast

Advertisements
Track Severe Weather on mobile